Terminal Aerodrome Forecast
Issued by NWS

Home | Current Version | Previous Version | Text Only | Print | Product List | Glossary On
Versions: 1 2 3 4 5 6 7 8 9 10 11 12
497
FTUS46 KSTO 262339
TAFSAC
TAF
KSAC 262339Z 2700/2724 21012G20KT P6SM SKC
     FM271000 18008G14KT P6SM SKC
      TEMPO 2714/2716 SCT015=

USA.gov is the U.S. government's official web portal to all federal, state and local government web resources and services.